Terminal Aerodrome Forecast
Issued by NWS

Home | Current Version | Previous Version | Text Only | Print | Product List | Glossary On
Versions: 1 2 3 4 5 6 7 8 9 10 11 12 13 14 15 16 17 18 19 20 21
000
FTUS45 KCYS 010202 AAA
TAFAIA
TAF AMD
KAIA 010202Z 0102/0124 36015KT 6SM -RASN BR OVC003
     FM010400 35010KT 3/4SM -SN OVC003
     FM010600 01010KT P6SM VCSH OVC003
     FM011900 02011KT P6SM BKN035=

USA.gov is the U.S. government's official web portal to all federal, state and local government web resources and services.